sensor_id;sensor_type;location;lat;lon;timestamp;pressure;altitude;pressure_sealevel;temperature;humidity
77212;BME280;66206;0.000;0.000;2023-10-31T13:27:34;96758.50;;;14.14;52.86
77212;BME280;66206;0.000;0.000;2023-10-31T13:29:59;96769.30;;;16.76;43.47
77212;BME280;66206;0.000;0.000;2023-10-31T13:32:24;96763.64;;;19.04;37.47
77212;BME280;66206;0.000;0.000;2023-10-31T13:34:49;96762.32;;;20.55;34.72
77212;BME280;66206;0.000;0.000;2023-10-31T13:37:15;96763.00;;;20.94;33.49
77212;BME280;66206;0.000;0.000;2023-10-31T13:39:40;96771.32;;;21.28;32.57
77212;BME280;66206;0.000;0.000;2023-10-31T13:42:05;96776.17;;;21.53;32.28
77212;BME280;66206;0.000;0.000;2023-10-31T13:44:30;96782.25;;;21.55;32.04
77212;BME280;66206;0.000;0.000;2023-10-31T13:46:55;96778.81;;;21.77;31.84
77212;BME280;66206;0.000;0.000;2023-10-31T13:49:20;96788.40;;;21.31;32.36
77212;BME280;66206;0.000;0.000;2023-10-31T13:51:46;96787.10;;;21.19;32.50
77212;BME280;66206;0.000;0.000;2023-10-31T13:54:11;96792.27;;;21.51;31.97
77212;BME280;66206;0.000;0.000;2023-10-31T13:56:36;96789.37;;;21.32;32.06
77212;BME280;66206;0.000;0.000;2023-10-31T13:59:02;96792.85;;;21.18;32.03
77212;BME280;66206;0.000;0.000;2023-10-31T14:01:27;96800.40;;;21.38;31.88
77212;BME280;66206;0.000;0.000;2023-10-31T14:03:57;96795.00;;;21.61;31.58
77212;BME280;66206;0.000;0.000;2023-10-31T14:06:22;96793.81;;;21.67;31.48
77212;BME280;66206;0.000;0.000;2023-10-31T14:08:47;96801.78;;;21.69;31.34
77212;BME280;66206;0.000;0.000;2023-10-31T14:11:12;96802.98;;;21.35;31.82
77212;BME280;66206;0.000;0.000;2023-10-31T14:13:38;96808.93;;;21.46;31.54
77212;BME280;66206;0.000;0.000;2023-10-31T14:16:08;96813.40;;;21.45;31.67
77212;BME280;66206;0.000;0.000;2023-10-31T14:18:33;96815.73;;;21.73;31.32
77212;BME280;66206;0.000;0.000;2023-10-31T14:20:58;96821.39;;;21.52;31.47
77212;BME280;66206;0.000;0.000;2023-10-31T14:23:28;96825.28;;;21.71;31.24
77212;BME280;66206;0.000;0.000;2023-10-31T14:25:54;96825.33;;;22.04;30.74
77212;BME280;66206;0.000;0.000;2023-10-31T14:28:19;96827.92;;;21.84;30.76
77212;BME280;66206;0.000;0.000;2023-10-31T14:30:49;96832.10;;;21.78;31.10
77212;BME280;66206;0.000;0.000;2023-10-31T14:33:14;96832.15;;;21.51;31.47
77212;BME280;66206;0.000;0.000;2023-10-31T14:35:39;96840.38;;;21.38;31.72
77212;BME280;66206;0.000;0.000;2023-10-31T14:38:04;96845.34;;;21.39;31.66
77212;BME280;66206;0.000;0.000;2023-10-31T14:40:29;96852.66;;;21.23;31.96
77212;BME280;66206;0.000;0.000;2023-10-31T14:42:54;96853.87;;;21.01;32.04
77212;BME280;66206;0.000;0.000;2023-10-31T14:45:20;96861.42;;;21.08;31.92
77212;BME280;66206;0.000;0.000;2023-10-31T14:47:45;96864.82;;;21.43;31.50
77212;BME280;66206;0.000;0.000;2023-10-31T14:50:15;96871.54;;;21.83;30.87
77212;BME280;66206;0.000;0.000;2023-10-31T14:52:40;96873.54;;;21.84;30.94
77212;BME280;66206;0.000;0.000;2023-10-31T14:55:05;96876.73;;;21.78;30.99
77212;BME280;66206;0.000;0.000;2023-10-31T14:57:31;96880.89;;;21.67;31.09
77212;BME280;66206;0.000;0.000;2023-10-31T14:59:56;96879.78;;;21.51;30.94
77212;BME280;66206;0.000;0.000;2023-10-31T15:02:21;96880.30;;;21.53;31.03
77212;BME280;66206;0.000;0.000;2023-10-31T15:04:51;96884.60;;;21.55;30.94
77212;BME280;66206;0.000;0.000;2023-10-31T15:07:16;96885.54;;;21.56;30.85
77212;BME280;66206;0.000;0.000;2023-10-31T15:09:46;96885.05;;;21.42;31.25
77212;BME280;66206;0.000;0.000;2023-10-31T15:12:17;96884.09;;;21.69;30.86
77212;BME280;66206;0.000;0.000;2023-10-31T15:14:42;96888.01;;;21.48;31.09
77212;BME280;66206;0.000;0.000;2023-10-31T15:17:12;96895.75;;;21.66;31.00
77212;BME280;66206;0.000;0.000;2023-10-31T15:19:37;96895.83;;;21.80;30.70
77212;BME280;66206;0.000;0.000;2023-10-31T15:22:02;96903.26;;;21.99;30.56
77212;BME280;66206;0.000;0.000;2023-10-31T15:24:33;96907.84;;;21.56;30.97
77212;BME280;66206;0.000;0.000;2023-10-31T15:27:03;96910.93;;;21.37;31.32
77212;BME280;66206;0.000;0.000;2023-10-31T15:29:28;96915.94;;;21.55;30.90
77212;BME280;66206;0.000;0.000;2023-10-31T15:31:58;96914.45;;;21.15;31.36
77212;BME280;66206;0.000;0.000;2023-10-31T15:34:23;96919.73;;;21.60;31.04
77212;BME280;66206;0.000;0.000;2023-10-31T15:36:54;96916.79;;;21.19;31.10
77212;BME280;66206;0.000;0.000;2023-10-31T15:39:19;96921.36;;;21.42;30.85
77212;BME280;66206;0.000;0.000;2023-10-31T15:41:44;96922.60;;;21.10;31.29
77212;BME280;66206;0.000;0.000;2023-10-31T15:44:14;96923.65;;;21.37;30.92
77212;BME280;66206;0.000;0.000;2023-10-31T15:46:39;96923.84;;;21.56;30.66
77212;BME280;66206;0.000;0.000;2023-10-31T15:49:09;96926.85;;;21.78;30.69
77212;BME280;66206;0.000;0.000;2023-10-31T15:51:34;96930.03;;;22.12;30.56
77212;BME280;66206;0.000;0.000;2023-10-31T15:54:05;96934.70;;;21.41;30.77
77212;BME280;66206;0.000;0.000;2023-10-31T15:56:30;96943.18;;;21.44;30.96
77212;BME280;66206;0.000;0.000;2023-10-31T15:58:55;96946.20;;;21.49;30.82
77212;BME280;66206;0.000;0.000;2023-10-31T16:01:25;96945.93;;;21.59;30.73
77212;BME280;66206;0.000;0.000;2023-10-31T16:03:55;96949.87;;;21.57;30.56
77212;BME280;66206;0.000;0.000;2023-10-31T16:06:20;96950.43;;;22.08;30.24
77212;BME280;66206;0.000;0.000;2023-10-31T16:08:51;96952.83;;;21.75;30.78
77212;BME280;66206;0.000;0.000;2023-10-31T16:11:21;96955.07;;;21.58;30.73
77212;BME280;66206;0.000;0.000;2023-10-31T16:13:46;96954.85;;;21.50;31.02
77212;BME280;66206;0.000;0.000;2023-10-31T16:16:16;96955.84;;;21.45;30.84
77212;BME280;66206;0.000;0.000;2023-10-31T16:18:41;96967.61;;;21.46;30.91
77212;BME280;66206;0.000;0.000;2023-10-31T16:21:15;96971.73;;;21.95;30.63
77212;BME280;66206;0.000;0.000;2023-10-31T16:23:34;96976.12;;;21.60;30.79
77212;BME280;66206;0.000;0.000;2023-10-31T16:25:59;96980.67;;;22.04;30.44
77212;BME280;66206;0.000;0.000;2023-10-31T16:28:24;96981.02;;;21.67;30.70
77212;BME280;66206;0.000;0.000;2023-10-31T16:30:55;96982.76;;;21.17;31.33
77212;BME280;66206;0.000;0.000;2023-10-31T16:33:20;96989.30;;;21.39;31.02
77212;BME280;66206;0.000;0.000;2023-10-31T16:35:50;96994.22;;;21.02;31.43
77212;BME280;66206;0.000;0.000;2023-10-31T16:38:20;96997.61;;;21.06;31.41
77212;BME280;66206;0.000;0.000;2023-10-31T16:40:51;97004.25;;;21.18;31.44
77212;BME280;66206;0.000;0.000;2023-10-31T16:43:21;97006.12;;;21.14;31.35
77212;BME280;66206;0.000;0.000;2023-10-31T16:45:46;97010.43;;;21.08;31.41
77212;BME280;66206;0.000;0.000;2023-10-31T16:48:16;97012.66;;;20.87;31.55
77212;BME280;66206;0.000;0.000;2023-10-31T16:50:46;97014.14;;;20.88;31.59
77212;BME280;66206;0.000;0.000;2023-10-31T16:53:12;97017.82;;;21.04;31.49
77212;BME280;66206;0.000;0.000;2023-10-31T16:55:42;97019.60;;;20.95;31.49
77212;BME280;66206;0.000;0.000;2023-10-31T16:58:07;97018.19;;;20.91;31.50
77212;BME280;66206;0.000;0.000;2023-10-31T17:00:32;97019.86;;;20.86;31.64
77212;BME280;66206;0.000;0.000;2023-10-31T17:03:02;97023.68;;;20.84;31.64
77212;BME280;66206;0.000;0.000;2023-10-31T17:05:27;97023.17;;;21.00;31.68
77212;BME280;66206;0.000;0.000;2023-10-31T17:07:57;97017.95;;;21.28;31.59
77212;BME280;66206;0.000;0.000;2023-10-31T17:10:28;97026.64;;;20.67;31.87
77212;BME280;66206;0.000;0.000;2023-10-31T17:12:53;97033.98;;;20.73;32.09
77212;BME280;66206;0.000;0.000;2023-10-31T17:15:23;97037.66;;;20.89;31.96
77212;BME280;66206;0.000;0.000;2023-10-31T17:17:48;97039.85;;;20.79;31.99
77212;BME280;66206;0.000;0.000;2023-10-31T17:20:13;97041.24;;;20.79;31.91
77212;BME280;66206;0.000;0.000;2023-10-31T17:22:43;97045.89;;;20.81;31.86
77212;BME280;66206;0.000;0.000;2023-10-31T17:25:13;97050.92;;;21.00;31.77
77212;BME280;66206;0.000;0.000;2023-10-31T17:27:44;97056.96;;;20.91;31.76
77212;BME280;66206;0.000;0.000;2023-10-31T17:30:14;97062.14;;;21.03;31.70
77212;BME280;66206;0.000;0.000;2023-10-31T17:32:40;97066.86;;;20.99;31.79
77212;BME280;66206;0.000;0.000;2023-10-31T17:35:10;97073.51;;;20.95;31.59
77212;BME280;66206;0.000;0.000;2023-10-31T17:37:35;97076.74;;;21.01;31.66
77212;BME280;66206;0.000;0.000;2023-10-31T17:40:00;97078.93;;;21.02;31.60
77212;BME280;66206;0.000;0.000;2023-10-31T17:42:30;97077.30;;;20.91;31.70
77212;BME280;66206;0.000;0.000;2023-10-31T17:44:55;97077.53;;;21.02;31.68
77212;BME280;66206;0.000;0.000;2023-10-31T17:47:25;97080.12;;;20.86;31.68
77212;BME280;66206;0.000;0.000;2023-10-31T17:49:50;97086.33;;;21.06;31.58
77212;BME280;66206;0.000;0.000;2023-10-31T17:52:16;97091.71;;;21.14;31.51
77212;BME280;66206;0.000;0.000;2023-10-31T17:54:46;97096.53;;;21.21;31.54
77212;BME280;66206;0.000;0.000;2023-10-31T17:57:11;97095.15;;;21.25;31.30
77212;BME280;66206;0.000;0.000;2023-10-31T17:59:36;97097.38;;;21.14;31.43
77212;BME280;66206;0.000;0.000;2023-10-31T18:02:06;97102.88;;;21.22;31.37
77212;BME280;66206;0.000;0.000;2023-10-31T18:04:31;97104.44;;;21.34;31.34
77212;BME280;66206;0.000;0.000;2023-10-31T18:07:01;97110.06;;;21.21;31.38
77212;BME280;66206;0.000;0.000;2023-10-31T18:09:32;97118.96;;;21.18;31.34
77212;BME280;66206;0.000;0.000;2023-10-31T18:11:57;97123.75;;;21.34;31.22
77212;BME280;66206;0.000;0.000;2023-10-31T18:14:27;97126.77;;;21.14;31.27
77212;BME280;66206;0.000;0.000;2023-10-31T18:16:57;97132.10;;;21.02;31.36
77212;BME280;66206;0.000;0.000;2023-10-31T18:19:22;97134.03;;;21.34;31.14
77212;BME280;66206;0.000;0.000;2023-10-31T18:21:53;97145.10;;;21.14;31.30
77212;BME280;66206;0.000;0.000;2023-10-31T18:24:18;97147.40;;;21.14;31.38
77212;BME280;66206;0.000;0.000;2023-10-31T18:26:43;97147.33;;;21.27;31.21
77212;BME280;66206;0.000;0.000;2023-10-31T18:29:08;97148.38;;;21.34;31.19
77212;BME280;66206;0.000;0.000;2023-10-31T18:31:33;97155.52;;;21.19;31.20
77212;BME280;66206;0.000;0.000;2023-10-31T18:34:03;97154.54;;;21.29;31.26
77212;BME280;66206;0.000;0.000;2023-10-31T18:36:28;97153.49;;;21.27;31.16
77212;BME280;66206;0.000;0.000;2023-10-31T18:38:53;97153.93;;;21.23;31.21
77212;BME280;66206;0.000;0.000;2023-10-31T18:41:23;97153.52;;;21.15;31.17
77212;BME280;66206;0.000;0.000;2023-10-31T18:43:48;97154.25;;;21.28;31.21
77212;BME280;66206;0.000;0.000;2023-10-31T18:46:14;97155.74;;;21.30;31.15
77212;BME280;66206;0.000;0.000;2023-10-31T18:48:44;97156.52;;;21.10;31.16
77212;BME280;66206;0.000;0.000;2023-10-31T18:51:09;97153.94;;;21.33;31.10
77212;BME280;66206;0.000;0.000;2023-10-31T18:53:39;97151.28;;;21.26;31.04
77212;BME280;66206;0.000;0.000;2023-10-31T18:56:09;97151.64;;;21.33;31.01
77212;BME280;66206;0.000;0.000;2023-10-31T18:58:34;97150.62;;;21.34;31.02
77212;BME280;66206;0.000;0.000;2023-10-31T19:01:05;97154.80;;;21.20;31.16
77212;BME280;66206;0.000;0.000;2023-10-31T19:03:30;97154.95;;;21.22;31.00
77212;BME280;66206;0.000;0.000;2023-10-31T19:05:55;97161.51;;;21.37;30.95
77212;BME280;66206;0.000;0.000;2023-10-31T19:08:25;97163.54;;;21.43;30.86
77212;BME280;66206;0.000;0.000;2023-10-31T19:10:50;97170.14;;;21.21;31.02
77212;BME280;66206;0.000;0.000;2023-10-31T19:13:20;97169.45;;;21.36;31.03
77212;BME280;66206;0.000;0.000;2023-10-31T19:15:45;97170.20;;;21.35;30.93
77212;BME280;66206;0.000;0.000;2023-10-31T19:18:11;97173.94;;;21.36;30.95
77212;BME280;66206;0.000;0.000;2023-10-31T19:20:41;97177.42;;;21.38;30.95
77212;BME280;66206;0.000;0.000;2023-10-31T19:23:06;97179.49;;;21.57;30.79
77212;BME280;66206;0.000;0.000;2023-10-31T19:25:31;97180.51;;;21.26;31.01
77212;BME280;66206;0.000;0.000;2023-10-31T19:28:01;97183.03;;;21.48;30.75
77212;BME280;66206;0.000;0.000;2023-10-31T19:30:26;97185.32;;;21.28;30.87
77212;BME280;66206;0.000;0.000;2023-10-31T19:32:52;97192.24;;;21.28;30.92
77212;BME280;66206;0.000;0.000;2023-10-31T19:35:22;97192.48;;;21.37;30.91
77212;BME280;66206;0.000;0.000;2023-10-31T19:37:52;97193.89;;;21.26;30.87
77212;BME280;66206;0.000;0.000;2023-10-31T19:40:22;97194.48;;;21.40;30.76
77212;BME280;66206;0.000;0.000;2023-10-31T19:42:48;97197.12;;;21.33;30.95
77212;BME280;66206;0.000;0.000;2023-10-31T19:45:13;97199.57;;;21.48;30.84
77212;BME280;66206;0.000;0.000;2023-10-31T19:47:43;97202.43;;;21.33;30.90
77212;BME280;66206;0.000;0.000;2023-10-31T19:50:08;97198.66;;;21.39;30.77
77212;BME280;66206;0.000;0.000;2023-10-31T19:52:33;97202.14;;;21.30;30.98
77212;BME280;66206;0.000;0.000;2023-10-31T19:55:04;97201.70;;;21.25;30.95
77212;BME280;66206;0.000;0.000;2023-10-31T19:57:29;97203.58;;;21.35;30.91
77212;BME280;66206;0.000;0.000;2023-10-31T19:59:59;97205.67;;;21.35;30.83
77212;BME280;66206;0.000;0.000;2023-10-31T20:02:25;97207.12;;;21.34;30.83
77212;BME280;66206;0.000;0.000;2023-10-31T20:04:50;97205.39;;;21.37;30.79
77212;BME280;66206;0.000;0.000;2023-10-31T20:07:20;97212.63;;;21.35;30.87
77212;BME280;66206;0.000;0.000;2023-10-31T20:09:50;97210.40;;;21.34;30.94
77212;BME280;66206;0.000;0.000;2023-10-31T20:12:19;97212.30;;;23.65;30.92
77212;BME280;66206;0.000;0.000;2023-10-31T20:14:46;97214.39;;;23.14;32.75
77212;BME280;66206;0.000;0.000;2023-10-31T20:17:13;97216.93;;;22.84;33.83
77212;BME280;66206;0.000;0.000;2023-10-31T20:19:40;97219.94;;;22.56;34.57
77212;BME280;66206;0.000;0.000;2023-10-31T20:22:06;97220.17;;;22.29;34.89
77212;BME280;66206;0.000;0.000;2023-10-31T20:24:33;97224.32;;;22.25;35.04
77212;BME280;66206;0.000;0.000;2023-10-31T20:27:00;97225.05;;;22.24;35.11
77212;BME280;66206;0.000;0.000;2023-10-31T20:29:26;97229.72;;;22.32;35.01
77212;BME280;66206;0.000;0.000;2023-10-31T20:31:53;97224.86;;;22.06;35.22
77212;BME280;66206;0.000;0.000;2023-10-31T20:34:20;97224.64;;;22.19;35.22
77212;BME280;66206;0.000;0.000;2023-10-31T20:36:47;97226.35;;;22.22;35.17
77212;BME280;66206;0.000;0.000;2023-10-31T20:39:13;97229.03;;;22.12;35.26
77212;BME280;66206;0.000;0.000;2023-10-31T20:41:40;97229.29;;;22.24;35.22
77212;BME280;66206;0.000;0.000;2023-10-31T20:44:07;97231.45;;;22.24;35.21
77212;BME280;66206;0.000;0.000;2023-10-31T20:46:34;97232.80;;;22.18;35.16
77212;BME280;66206;0.000;0.000;2023-10-31T20:49:00;97236.96;;;22.20;35.18
77212;BME280;66206;0.000;0.000;2023-10-31T20:51:27;97237.83;;;22.26;35.19
77212;BME280;66206;0.000;0.000;2023-10-31T20:53:54;97236.16;;;22.21;35.24
77212;BME280;66206;0.000;0.000;2023-10-31T20:56:20;97241.74;;;22.14;35.26
77212;BME280;66206;0.000;0.000;2023-10-31T20:58:47;97240.01;;;22.26;35.17
77212;BME280;66206;0.000;0.000;2023-10-31T21:01:14;97241.29;;;22.18;35.30
77212;BME280;66206;0.000;0.000;2023-10-31T21:03:41;97243.26;;;22.25;35.16
77212;BME280;66206;0.000;0.000;2023-10-31T21:06:08;97243.28;;;22.23;35.18
77212;BME280;66206;0.000;0.000;2023-10-31T21:08:34;97242.92;;;22.25;35.12
77212;BME280;66206;0.000;0.000;2023-10-31T21:11:01;97245.80;;;22.16;35.25
77212;BME280;66206;0.000;0.000;2023-10-31T21:13:28;97246.05;;;22.32;35.12
77212;BME280;66206;0.000;0.000;2023-10-31T21:15:55;97245.00;;;22.15;35.21
77212;BME280;66206;0.000;0.000;2023-10-31T21:18:22;97250.66;;;22.26;35.13
77212;BME280;66206;0.000;0.000;2023-10-31T21:20:48;97254.35;;;22.08;35.31
77212;BME280;66206;0.000;0.000;2023-10-31T21:23:15;97253.84;;;22.07;35.23
77212;BME280;66206;0.000;0.000;2023-10-31T21:25:42;97256.43;;;22.16;35.20
77212;BME280;66206;0.000;0.000;2023-10-31T21:28:08;97256.73;;;22.18;35.16
77212;BME280;66206;0.000;0.000;2023-10-31T21:30:35;97258.91;;;22.34;35.03
77212;BME280;66206;0.000;0.000;2023-10-31T21:33:02;97252.72;;;22.15;35.31
77212;BME280;66206;0.000;0.000;2023-10-31T21:35:29;97251.87;;;22.18;35.08
77212;BME280;66206;0.000;0.000;2023-10-31T21:37:56;97253.09;;;22.28;35.05
77212;BME280;66206;0.000;0.000;2023-10-31T21:40:23;97248.65;;;22.23;35.05
77212;BME280;66206;0.000;0.000;2023-10-31T21:42:49;97251.59;;;22.20;35.10
77212;BME280;66206;0.000;0.000;2023-10-31T21:45:16;97256.68;;;22.17;35.15
77212;BME280;66206;0.000;0.000;2023-10-31T21:47:43;97258.16;;;22.18;35.26
77212;BME280;66206;0.000;0.000;2023-10-31T21:50:10;97254.21;;;22.04;35.27
77212;BME280;66206;0.000;0.000;2023-10-31T21:52:36;97257.72;;;22.10;35.20
77212;BME280;66206;0.000;0.000;2023-10-31T21:55:04;97257.58;;;22.15;35.20
77212;BME280;66206;0.000;0.000;2023-10-31T21:57:30;97258.56;;;22.15;35.19
77212;BME280;66206;0.000;0.000;2023-10-31T21:59:57;97260.37;;;22.21;35.10
77212;BME280;66206;0.000;0.000;2023-10-31T22:02:24;97261.08;;;22.19;35.09
77212;BME280;66206;0.000;0.000;2023-10-31T22:04:51;97258.21;;;22.16;35.19
77212;BME280;66206;0.000;0.000;2023-10-31T22:07:17;97255.34;;;22.18;35.16
77212;BME280;66206;0.000;0.000;2023-10-31T22:09:44;97254.02;;;22.06;35.15
77212;BME280;66206;0.000;0.000;2023-10-31T22:12:11;97255.56;;;22.27;35.04
77212;BME280;66206;0.000;0.000;2023-10-31T22:14:38;97252.05;;;22.18;35.12
77212;BME280;66206;0.000;0.000;2023-10-31T22:17:04;97252.42;;;22.24;35.00
77212;BME280;66206;0.000;0.000;2023-10-31T22:19:31;97249.88;;;22.17;35.08
77212;BME280;66206;0.000;0.000;2023-10-31T22:21:58;97256.47;;;22.27;34.98
77212;BME280;66206;0.000;0.000;2023-10-31T22:24:25;97259.39;;;22.11;35.14
77212;BME280;66206;0.000;0.000;2023-10-31T22:26:51;97257.63;;;22.16;35.08
77212;BME280;66206;0.000;0.000;2023-10-31T22:29:18;97256.69;;;22.18;35.10
77212;BME280;66206;0.000;0.000;2023-10-31T22:31:45;97261.86;;;22.17;35.07
77212;BME280;66206;0.000;0.000;2023-10-31T22:34:11;97264.33;;;22.14;35.09
77212;BME280;66206;0.000;0.000;2023-10-31T22:36:39;97264.52;;;22.09;35.08
77212;BME280;66206;0.000;0.000;2023-10-31T22:39:05;97263.93;;;22.22;35.04
77212;BME280;66206;0.000;0.000;2023-10-31T22:41:32;97264.86;;;22.19;35.01
77212;BME280;66206;0.000;0.000;2023-10-31T22:44:01;97262.48;;;22.11;35.15
77212;BME280;66206;0.000;0.000;2023-10-31T22:46:28;97269.72;;;22.14;35.08
77212;BME280;66206;0.000;0.000;2023-10-31T22:48:54;97267.16;;;22.17;35.12
77212;BME280;66206;0.000;0.000;2023-10-31T22:51:21;97270.30;;;22.13;35.13
77212;BME280;66206;0.000;0.000;2023-10-31T22:53:48;97273.60;;;22.09;35.11
77212;BME280;66206;0.000;0.000;2023-10-31T22:56:14;97276.58;;;22.12;35.16
77212;BME280;66206;0.000;0.000;2023-10-31T22:58:41;97277.21;;;22.14;35.12
77212;BME280;66206;0.000;0.000;2023-10-31T23:01:08;97273.05;;;22.16;35.07
77212;BME280;66206;0.000;0.000;2023-10-31T23:03:35;97274.31;;;22.05;35.16
77212;BME280;66206;0.000;0.000;2023-10-31T23:06:01;97275.60;;;22.16;35.11
77212;BME280;66206;0.000;0.000;2023-10-31T23:08:28;97268.30;;;22.19;35.11
77212;BME280;66206;0.000;0.000;2023-10-31T23:10:55;97268.36;;;22.02;35.14
77212;BME280;66206;0.000;0.000;2023-10-31T23:13:22;97269.93;;;21.95;35.23
77212;BME280;66206;0.000;0.000;2023-10-31T23:15:48;97267.84;;;22.15;35.07
77212;BME280;66206;0.000;0.000;2023-10-31T23:18:15;97268.70;;;22.15;35.07
77212;BME280;66206;0.000;0.000;2023-10-31T23:20:42;97264.34;;;22.18;34.99
77212;BME280;66206;0.000;0.000;2023-10-31T23:23:09;97264.87;;;22.14;34.98
77212;BME280;66206;0.000;0.000;2023-10-31T23:25:36;97261.18;;;22.15;35.07
77212;BME280;66206;0.000;0.000;2023-10-31T23:28:03;97262.52;;;22.23;34.97
77212;BME280;66206;0.000;0.000;2023-10-31T23:30:30;97261.02;;;22.08;35.09
77212;BME280;66206;0.000;0.000;2023-10-31T23:32:56;97260.40;;;22.13;35.04
77212;BME280;66206;0.000;0.000;2023-10-31T23:35:23;97255.36;;;22.14;35.07
77212;BME280;66206;0.000;0.000;2023-10-31T23:37:50;97256.33;;;22.09;35.06
77212;BME280;66206;0.000;0.000;2023-10-31T23:40:17;97258.62;;;22.14;35.07
77212;BME280;66206;0.000;0.000;2023-10-31T23:42:43;97261.05;;;22.13;35.07
77212;BME280;66206;0.000;0.000;2023-10-31T23:45:10;97269.34;;;22.27;34.97
77212;BME280;66206;0.000;0.000;2023-10-31T23:47:37;97276.66;;;22.26;34.97
77212;BME280;66206;0.000;0.000;2023-10-31T23:50:04;97276.64;;;22.17;34.98
77212;BME280;66206;0.000;0.000;2023-10-31T23:52:31;97281.59;;;22.12;35.01
77212;BME280;66206;0.000;0.000;2023-10-31T23:54:58;97283.06;;;22.18;35.01
77212;BME280;66206;0.000;0.000;2023-10-31T23:57:24;97280.83;;;22.17;35.01
77212;BME280;66206;0.000;0.000;2023-10-31T23:59:51;97279.34;;;22.22;34.93
